createdAt,value
2022-10-19T00:00:43.628Z,13.50
2022-10-19T00:01:43.537Z,16.90
2022-10-19T00:02:43.517Z,15.90
2022-10-19T00:03:43.518Z,14.90
2022-10-19T00:04:43.475Z,14.20
2022-10-19T00:05:43.483Z,15.90
2022-10-19T00:06:43.445Z,14.70
2022-10-19T00:07:43.428Z,15.40
2022-10-19T00:08:43.443Z,13.20
2022-10-19T00:09:43.406Z,14.40
2022-10-19T00:10:43.410Z,11.50
2022-10-19T00:11:43.404Z,14.80
2022-10-19T00:12:43.428Z,15.10
2022-10-19T00:13:43.355Z,13.90
2022-10-19T00:14:43.327Z,13.40
2022-10-19T00:15:43.337Z,15.60
2022-10-19T00:16:43.335Z,12.50
2022-10-19T00:17:43.308Z,13.60
2022-10-19T00:18:43.329Z,16.70
2022-10-19T00:19:43.306Z,14.30
2022-10-19T00:20:43.264Z,14.50
2022-10-19T00:21:43.337Z,16.60
2022-10-19T00:22:43.258Z,17.30
2022-10-19T00:23:43.244Z,15.30
2022-10-19T00:24:43.281Z,15.80
2022-10-19T00:25:43.220Z,18.20
2022-10-19T00:26:43.183Z,18.20
2022-10-19T00:27:43.170Z,16.10
2022-10-19T00:28:43.161Z,15.60
2022-10-19T00:29:43.136Z,15.30
2022-10-19T00:30:43.236Z,16.20
2022-10-19T00:31:43.107Z,13.90
2022-10-19T00:32:43.099Z,16.10
2022-10-19T00:33:43.087Z,12.90
2022-10-19T00:34:43.090Z,13.20
2022-10-19T00:35:43.058Z,13.90
2022-10-19T00:36:43.044Z,15.10
2022-10-19T00:37:43.036Z,15.50
2022-10-19T00:38:43.013Z,15.80
2022-10-19T00:39:43.151Z,14.70
2022-10-19T00:40:42.999Z,15.80
2022-10-19T00:41:42.985Z,14.00
2022-10-19T00:42:42.961Z,17.00
2022-10-19T00:43:42.959Z,18.80
2022-10-19T00:44:42.966Z,18.50
2022-10-19T00:45:42.923Z,17.80
2022-10-19T00:46:42.930Z,18.40
2022-10-19T00:47:42.898Z,15.30
2022-10-19T00:48:42.907Z,16.00
2022-10-19T00:49:42.947Z,17.50
2022-10-19T00:50:42.860Z,16.90
2022-10-19T00:51:42.865Z,16.70
2022-10-19T00:52:42.823Z,14.90
2022-10-19T00:53:42.828Z,16.70
2022-10-19T00:54:42.799Z,14.60
2022-10-19T00:55:42.798Z,14.30
2022-10-19T00:56:42.803Z,15.10
2022-10-19T00:57:42.814Z,17.00
2022-10-19T00:58:42.791Z,11.90
2022-10-19T00:59:42.753Z,12.70
2022-10-19T01:00:42.759Z,15.70
2022-10-19T01:01:42.733Z,15.50
2022-10-19T01:02:42.736Z,19.10
2022-10-19T01:03:42.711Z,13.90
2022-10-19T01:04:42.672Z,15.80
2022-10-19T01:05:42.694Z,14.80
2022-10-19T01:06:42.714Z,13.90
2022-10-19T01:07:42.677Z,15.70
2022-10-19T01:08:42.645Z,17.50
2022-10-19T01:09:42.602Z,18.50
2022-10-19T01:10:42.588Z,19.80
2022-10-19T01:11:42.586Z,16.40
2022-10-19T01:12:42.601Z,17.50
2022-10-19T01:13:42.569Z,14.00
2022-10-19T01:14:42.529Z,16.10
2022-10-19T01:15:42.561Z,18.30
2022-10-19T01:16:42.563Z,19.80
2022-10-19T01:17:42.528Z,18.50
2022-10-19T01:18:42.488Z,18.00
2022-10-19T01:19:42.474Z,19.10
2022-10-19T01:20:42.457Z,24.30
2022-10-19T01:21:42.472Z,28.40
2022-10-19T01:22:42.468Z,22.80
2022-10-19T01:23:42.426Z,23.90
2022-10-19T01:24:42.428Z,23.50
2022-10-19T01:25:42.394Z,24.40
2022-10-19T01:26:42.399Z,24.60
2022-10-19T01:27:42.447Z,30.70
2022-10-19T01:28:42.420Z,24.50
2022-10-19T01:29:42.351Z,26.60
2022-10-19T01:30:42.358Z,23.20
2022-10-19T01:31:42.326Z,23.60
2022-10-19T01:32:42.309Z,21.20
2022-10-19T01:33:42.350Z,23.00
2022-10-19T01:34:42.284Z,19.00
2022-10-19T01:35:42.291Z,26.60
2022-10-19T01:36:42.253Z,24.20
2022-10-19T01:37:42.263Z,22.80
2022-10-19T01:38:42.269Z,19.10
2022-10-19T01:39:44.282Z,17.20
2022-10-19T01:40:42.189Z,17.90
2022-10-19T01:41:42.186Z,17.70
2022-10-19T01:42:42.242Z,20.90
2022-10-19T01:43:42.171Z,19.10
2022-10-19T01:44:42.206Z,22.40
2022-10-19T01:45:42.220Z,24.00
2022-10-19T01:46:42.174Z,21.30
2022-10-19T01:47:42.126Z,21.40
2022-10-19T01:48:42.173Z,19.00
2022-10-19T01:49:42.097Z,19.30
2022-10-19T01:50:42.106Z,21.90
2022-10-19T01:51:42.091Z,25.00
2022-10-19T01:52:42.067Z,23.30
2022-10-19T01:53:42.019Z,22.90
2022-10-19T01:54:42.007Z,24.80
2022-10-19T01:55:41.994Z,21.70
2022-10-19T01:56:41.978Z,21.40
2022-10-19T01:57:42.005Z,21.10
2022-10-19T01:58:41.959Z,24.50
2022-10-19T01:59:41.942Z,20.80
2022-10-19T02:00:41.977Z,20.80
2022-10-19T02:01:41.950Z,17.90
2022-10-19T02:02:41.918Z,19.50
2022-10-19T02:03:41.887Z,18.60
2022-10-19T02:04:41.879Z,16.60
2022-10-19T02:05:41.890Z,17.50
2022-10-19T02:06:41.845Z,19.00
2022-10-19T02:07:41.843Z,22.40
2022-10-19T02:08:41.871Z,20.80
2022-10-19T02:09:41.849Z,24.80
2022-10-19T02:10:41.809Z,23.20
2022-10-19T02:11:44.161Z,25.10
2022-10-19T02:12:41.799Z,29.10
2022-10-19T02:13:41.750Z,20.80
2022-10-19T02:14:41.767Z,22.60
2022-10-19T02:15:41.758Z,19.30
2022-10-19T02:16:41.747Z,20.60
2022-10-19T02:17:41.687Z,19.70
2022-10-19T02:18:41.696Z,18.90
2022-10-19T02:19:41.680Z,19.90
2022-10-19T02:20:41.678Z,17.90
2022-10-19T02:21:41.643Z,20.50
2022-10-19T02:22:41.658Z,21.10
2022-10-19T02:23:41.610Z,17.90
2022-10-19T02:24:41.614Z,19.10
2022-10-19T02:25:41.615Z,21.10
2022-10-19T02:26:41.586Z,21.10
2022-10-19T02:27:41.578Z,18.60
2022-10-19T02:28:41.576Z,20.70
2022-10-19T02:29:41.586Z,22.00
2022-10-19T02:30:41.538Z,22.20
2022-10-19T02:31:41.515Z,26.20
2022-10-19T02:32:41.528Z,25.20
2022-10-19T02:33:41.506Z,24.50
2022-10-19T02:34:41.477Z,27.70
2022-10-19T02:35:41.463Z,30.60
2022-10-19T02:36:41.447Z,31.80
2022-10-19T02:37:41.450Z,26.40
2022-10-19T02:38:41.418Z,28.90
2022-10-19T02:39:41.410Z,26.90
2022-10-19T02:40:41.393Z,29.10
2022-10-19T02:41:41.393Z,30.60
2022-10-19T02:42:41.390Z,29.00
2022-10-19T02:43:41.347Z,30.40
2022-10-19T02:44:41.358Z,44.70
2022-10-19T02:45:41.325Z,39.20
2022-10-19T02:47:41.321Z,36.90
2022-10-19T02:48:41.290Z,31.10
2022-10-19T02:49:48.048Z,35.30
2022-10-19T02:50:41.269Z,33.60
2022-10-19T02:51:41.301Z,27.00
2022-10-19T02:52:41.256Z,38.40
2022-10-19T02:53:41.251Z,30.40
2022-10-19T02:54:41.201Z,30.30
2022-10-19T02:56:41.208Z,24.90
2022-10-19T02:57:41.162Z,29.10
2022-10-19T02:58:41.179Z,31.10
2022-10-19T02:59:41.131Z,28.70
2022-10-19T03:00:41.229Z,28.80
2022-10-19T03:01:41.107Z,28.20
2022-10-19T03:02:41.097Z,27.20
2022-10-19T03:03:41.106Z,23.90
2022-10-19T03:04:41.100Z,25.60
2022-10-19T03:05:41.057Z,28.50
2022-10-19T03:06:41.066Z,26.80
2022-10-19T03:07:41.024Z,24.30
2022-10-19T03:08:41.035Z,24.00
2022-10-19T03:09:41.003Z,24.30
2022-10-19T03:10:40.989Z,24.00
2022-10-19T03:11:40.976Z,22.40
2022-10-19T03:12:40.964Z,23.60
2022-10-19T03:13:41.004Z,20.70
2022-10-19T03:14:40.950Z,23.80
2022-10-19T03:15:40.939Z,22.00
2022-10-19T03:16:40.910Z,22.90
2022-10-19T03:17:40.899Z,25.70
2022-10-19T03:18:40.912Z,22.30
2022-10-19T03:19:40.867Z,23.50
2022-10-19T03:20:40.867Z,25.80
2022-10-19T03:21:40.836Z,24.60
2022-10-19T03:22:40.882Z,24.10
2022-10-19T03:23:40.852Z,20.80
2022-10-19T03:24:40.804Z,21.20
2022-10-19T03:25:40.793Z,19.90
2022-10-19T03:26:40.791Z,19.90
2022-10-19T03:27:40.798Z,21.30
2022-10-19T03:28:40.828Z,25.10
2022-10-19T03:29:40.775Z,21.90
2022-10-19T03:30:40.747Z,22.50
2022-10-19T03:31:40.716Z,21.80
2022-10-19T03:32:40.697Z,28.00
2022-10-19T03:33:40.699Z,31.90
2022-10-19T03:34:40.700Z,24.60
2022-10-19T03:35:40.689Z,22.20
2022-10-19T03:36:40.654Z,21.50
2022-10-19T03:37:40.642Z,25.00
2022-10-19T03:38:40.624Z,27.80
2022-10-19T03:39:40.602Z,24.60
2022-10-19T03:40:40.617Z,30.10
2022-10-19T03:41:40.573Z,34.30
2022-10-19T03:42:40.601Z,61.30
2022-10-19T03:43:40.554Z,49.90
2022-10-19T03:44:40.543Z,44.80
2022-10-19T03:45:40.553Z,37.60
2022-10-19T03:46:40.529Z,34.50
2022-10-19T03:47:40.503Z,31.80
2022-10-19T03:48:40.488Z,30.10
2022-10-19T03:49:40.542Z,31.50
2022-10-19T03:50:40.498Z,28.30
2022-10-19T03:51:40.443Z,27.60
2022-10-19T03:52:40.439Z,24.40
2022-10-19T03:53:40.418Z,27.00
2022-10-19T03:54:40.459Z,30.10
2022-10-19T03:55:40.389Z,25.90
2022-10-19T03:56:40.406Z,21.70
2022-10-19T03:57:40.426Z,24.10
2022-10-19T03:58:40.358Z,24.30
2022-10-19T03:59:40.360Z,21.10
2022-10-19T04:00:40.402Z,23.50
2022-10-19T04:01:40.350Z,21.60
2022-10-19T04:02:40.323Z,19.80
2022-10-19T04:03:40.335Z,20.00
2022-10-19T04:04:40.299Z,21.10
2022-10-19T04:05:40.262Z,22.30
2022-10-19T04:06:40.253Z,20.50
2022-10-19T04:07:40.322Z,17.80
2022-10-19T04:08:40.252Z,19.50
2022-10-19T04:09:40.257Z,19.60
2022-10-19T04:10:40.206Z,21.90
2022-10-19T04:11:40.185Z,19.40
2022-10-19T04:12:40.173Z,19.80
2022-10-19T04:13:40.148Z,18.00
2022-10-19T04:14:56.288Z,19.60
2022-10-19T04:15:40.128Z,20.10
2022-10-19T04:16:40.123Z,19.60
2022-10-19T04:17:40.101Z,17.40
2022-10-19T04:18:40.085Z,17.20
2022-10-19T04:19:40.101Z,20.90
2022-10-19T04:20:40.065Z,21.00
2022-10-19T04:21:40.051Z,23.00
2022-10-19T04:22:40.044Z,21.60
2022-10-19T04:23:40.031Z,22.70
2022-10-19T04:24:40.045Z,22.30
2022-10-19T04:25:40.021Z,22.70
2022-10-19T04:26:39.993Z,22.20
2022-10-19T04:27:39.964Z,19.60
2022-10-19T04:28:40.026Z,20.90
2022-10-19T04:29:39.947Z,20.20
2022-10-19T04:30:39.966Z,23.50
2022-10-19T04:31:39.937Z,21.30
2022-10-19T04:32:39.910Z,21.10
2022-10-19T04:33:39.983Z,21.00
2022-10-19T04:34:40.189Z,20.30
2022-10-19T04:35:39.891Z,19.40
2022-10-19T04:36:39.881Z,21.80
2022-10-19T04:37:39.837Z,20.20
2022-10-19T04:38:39.828Z,19.50
2022-10-19T04:39:39.813Z,18.30
2022-10-19T04:40:39.832Z,20.40
2022-10-19T04:41:39.787Z,23.10
2022-10-19T04:42:39.767Z,21.60
2022-10-19T04:43:39.779Z,16.40
2022-10-19T04:44:39.748Z,19.10
2022-10-19T04:45:39.773Z,18.10
2022-10-19T04:46:39.721Z,17.60
2022-10-19T04:47:39.699Z,18.30
2022-10-19T04:48:39.729Z,19.20
2022-10-19T04:49:39.676Z,23.60
2022-10-19T04:50:39.665Z,28.60
2022-10-19T04:51:39.690Z,43.40
2022-10-19T04:52:39.650Z,21.10
2022-10-19T04:53:39.643Z,17.10
2022-10-19T04:54:39.674Z,18.90
2022-10-19T04:55:39.623Z,21.30
2022-10-19T04:56:39.581Z,18.30
2022-10-19T04:57:39.571Z,24.90
2022-10-19T04:58:39.564Z,25.00
2022-10-19T04:59:39.575Z,27.80
2022-10-19T05:00:39.586Z,25.30
2022-10-19T05:01:43.307Z,25.30
2022-10-19T05:02:39.540Z,21.30
2022-10-19T05:03:39.488Z,19.30
2022-10-19T05:04:41.819Z,17.30
2022-10-19T05:05:39.468Z,16.70
2022-10-19T05:06:39.498Z,18.90
2022-10-19T05:07:39.462Z,16.60
2022-10-19T05:08:39.429Z,16.20
2022-10-19T05:09:39.409Z,16.60
2022-10-19T05:10:41.218Z,15.70
2022-10-19T05:11:39.423Z,15.40
2022-10-19T05:12:39.413Z,18.10
2022-10-19T05:13:39.376Z,14.30
2022-10-19T05:14:42.643Z,15.90
2022-10-19T05:15:39.363Z,16.60
2022-10-19T05:16:39.325Z,16.70
2022-10-19T05:17:39.302Z,17.70
2022-10-19T05:18:39.314Z,17.10
2022-10-19T05:19:39.285Z,16.50
2022-10-19T05:20:39.266Z,20.60
2022-10-19T05:21:39.257Z,18.60
2022-10-19T05:22:39.266Z,22.50
2022-10-19T05:23:39.233Z,18.20
2022-10-19T05:24:39.248Z,16.20
2022-10-19T05:25:39.212Z,19.20
2022-10-19T05:26:39.197Z,17.10
2022-10-19T05:27:39.167Z,17.90
2022-10-19T05:28:39.249Z,17.80
2022-10-19T05:29:39.195Z,17.00
2022-10-19T05:30:39.151Z,19.70
2022-10-19T05:31:39.137Z,17.20
2022-10-19T05:32:39.113Z,17.60
2022-10-19T05:33:39.081Z,19.60
2022-10-19T05:34:39.083Z,18.10
2022-10-19T05:35:39.081Z,18.20
2022-10-19T05:36:39.084Z,16.90
2022-10-19T05:37:39.036Z,18.40
2022-10-19T05:38:39.047Z,21.50
2022-10-19T05:39:39.004Z,22.50
2022-10-19T05:40:39.047Z,22.80
2022-10-19T05:41:39.008Z,25.00
2022-10-19T05:42:38.975Z,23.80
2022-10-19T05:43:38.954Z,21.50
2022-10-19T05:45:38.945Z,38.90
2022-10-19T05:46:38.982Z,38.60
2022-10-19T05:47:38.903Z,48.60
2022-10-19T05:48:38.927Z,45.30
2022-10-19T05:49:38.877Z,34.60
2022-10-19T05:50:38.867Z,34.60
2022-10-19T05:51:38.855Z,42.90
2022-10-19T05:52:38.838Z,28.50
2022-10-19T05:54:38.834Z,26.10
2022-10-19T05:55:38.806Z,26.10
2022-10-19T05:56:38.783Z,35.30
2022-10-19T05:57:38.776Z,29.20
2022-10-19T05:58:38.771Z,25.50
2022-10-19T05:59:38.789Z,30.00
2022-10-19T06:00:38.768Z,29.90
2022-10-19T06:01:38.821Z,25.60
2022-10-19T06:02:38.718Z,24.50
2022-10-19T06:03:38.709Z,24.60
2022-10-19T06:04:38.780Z,23.50
2022-10-19T06:05:38.674Z,26.40
2022-10-19T06:06:38.661Z,25.70
2022-10-19T06:07:38.673Z,25.50
2022-10-19T06:08:38.614Z,25.60
2022-10-19T06:09:38.663Z,23.30
2022-10-19T06:10:38.600Z,21.90
2022-10-19T06:11:38.609Z,20.90
2022-10-19T06:12:38.580Z,18.20
2022-10-19T06:13:38.584Z,19.90
2022-10-19T06:14:38.600Z,21.50
2022-10-19T06:15:38.635Z,17.70
2022-10-19T06:16:38.527Z,20.30
2022-10-19T06:17:38.515Z,19.70
2022-10-19T06:18:38.523Z,20.40
2022-10-19T06:19:38.479Z,19.00
2022-10-19T06:20:38.467Z,18.60
2022-10-19T06:21:40.678Z,20.60
2022-10-19T06:22:38.468Z,17.50
2022-10-19T06:23:38.505Z,16.20
2022-10-19T06:24:38.416Z,16.80
2022-10-19T06:25:38.404Z,16.70
2022-10-19T06:26:38.413Z,16.40
2022-10-19T06:27:38.752Z,16.90
2022-10-19T06:28:38.380Z,16.90
2022-10-19T06:29:38.354Z,17.60
2022-10-19T06:30:38.418Z,16.00
2022-10-19T06:31:38.369Z,16.20
2022-10-19T06:32:38.319Z,15.20
2022-10-19T06:33:38.314Z,14.90
2022-10-19T06:34:38.288Z,16.10
2022-10-19T06:35:38.285Z,15.40
2022-10-19T06:36:38.293Z,14.60
2022-10-19T06:37:38.240Z,16.10
2022-10-19T06:38:38.230Z,18.20
2022-10-19T06:39:38.211Z,16.20
2022-10-19T06:40:38.194Z,18.00
2022-10-19T06:41:38.221Z,15.40
2022-10-19T06:42:38.170Z,18.60
2022-10-19T06:43:38.169Z,20.70
2022-10-19T06:44:38.155Z,18.20
2022-10-19T06:45:38.158Z,18.40
2022-10-19T06:46:38.117Z,18.00
2022-10-19T06:47:38.669Z,16.90
2022-10-19T06:48:38.090Z,19.30
2022-10-19T06:49:38.090Z,16.70
2022-10-19T06:50:38.081Z,17.10
2022-10-19T06:51:38.098Z,17.30
2022-10-19T06:52:38.083Z,16.10
2022-10-19T06:53:38.034Z,16.30
2022-10-19T06:54:38.010Z,14.20
2022-10-19T06:55:38.008Z,15.50
2022-10-19T06:56:38.050Z,16.00
2022-10-19T06:57:38.117Z,14.50
2022-10-19T06:58:37.962Z,20.80
2022-10-19T06:59:37.943Z,19.40
2022-10-19T07:00:38.055Z,14.50
2022-10-19T07:01:37.928Z,16.60
2022-10-19T07:02:37.952Z,14.90
2022-10-19T07:03:37.895Z,13.90
2022-10-19T07:04:37.903Z,31.20
2022-10-19T07:05:37.868Z,22.30
2022-10-19T07:06:37.856Z,16.10
2022-10-19T07:07:38.220Z,17.80
2022-10-19T07:08:37.863Z,18.90
2022-10-19T07:09:37.857Z,21.50
2022-10-19T07:10:37.808Z,23.60
2022-10-19T07:11:39.539Z,20.20
2022-10-19T07:12:37.782Z,20.30
2022-10-19T07:13:37.770Z,37.90
2022-10-19T07:14:37.765Z,25.90
2022-10-19T07:15:37.747Z,19.10
2022-10-19T07:16:37.760Z,16.10
2022-10-19T07:17:37.714Z,13.70
2022-10-19T07:18:37.708Z,12.60
2022-10-19T07:19:37.678Z,14.00
2022-10-19T07:20:37.662Z,13.40
2022-10-19T07:21:37.686Z,12.30
2022-10-19T07:22:37.639Z,12.10
2022-10-19T07:23:37.623Z,12.10
2022-10-19T07:24:37.608Z,12.30
2022-10-19T07:25:37.606Z,13.40
2022-10-19T07:26:37.630Z,14.00
2022-10-19T07:27:37.931Z,16.10
2022-10-19T07:28:37.568Z,12.50
2022-10-19T07:29:37.539Z,14.00
2022-10-19T07:30:37.527Z,15.10
2022-10-19T07:31:37.555Z,14.50
2022-10-19T07:32:37.499Z,13.90
2022-10-19T07:33:37.576Z,14.80
2022-10-19T07:34:37.479Z,15.90
2022-10-19T07:35:37.466Z,15.60
2022-10-19T07:36:37.473Z,14.20
2022-10-19T07:37:37.441Z,13.40
2022-10-19T07:38:37.436Z,12.10
2022-10-19T07:39:37.413Z,14.60
2022-10-19T07:40:37.387Z,17.50
2022-10-19T07:41:37.421Z,16.10
2022-10-19T07:42:37.369Z,15.00
2022-10-19T07:43:37.383Z,18.90
2022-10-19T07:44:37.342Z,14.90
2022-10-19T07:45:37.334Z,14.60
2022-10-19T07:46:37.458Z,14.90
2022-10-19T07:47:37.310Z,15.50
2022-10-19T07:48:37.293Z,17.70
2022-10-19T07:49:37.279Z,17.10
2022-10-19T07:50:37.259Z,20.10
2022-10-19T07:51:37.284Z,15.60
2022-10-19T07:52:37.303Z,16.30
2022-10-19T07:53:37.226Z,15.70
2022-10-19T07:54:37.212Z,13.40
2022-10-19T07:55:37.188Z,15.60
2022-10-19T07:56:37.205Z,14.00
2022-10-19T07:57:37.202Z,16.40
2022-10-19T07:58:37.178Z,15.20
2022-10-19T07:59:37.162Z,14.60
2022-10-19T08:00:37.197Z,15.50
2022-10-19T08:01:37.205Z,16.00
2022-10-19T08:02:54.655Z,14.70
2022-10-19T08:05:37.070Z,16.40
2022-10-19T08:06:37.057Z,19.40
2022-10-19T08:07:37.043Z,15.70
2022-10-19T08:08:37.056Z,13.60
2022-10-19T08:09:53.877Z,15.90
2022-10-19T08:10:36.999Z,18.60
2022-10-19T08:11:36.987Z,16.30
2022-10-19T08:12:36.985Z,16.10
2022-10-19T08:13:36.955Z,18.70
2022-10-19T08:14:36.988Z,20.30
2022-10-19T08:15:36.958Z,17.00
2022-10-19T08:16:36.929Z,15.90
2022-10-19T08:17:36.908Z,14.50
2022-10-19T08:18:36.887Z,16.10
2022-10-19T08:19:36.882Z,16.20
2022-10-19T08:20:36.880Z,16.30
2022-10-19T08:21:36.842Z,14.70
2022-10-19T08:22:37.019Z,16.50
2022-10-19T08:23:36.815Z,17.80
2022-10-19T08:24:36.851Z,18.20
2022-10-19T08:25:36.794Z,17.80
2022-10-19T08:26:36.769Z,17.50
2022-10-19T08:28:36.866Z,17.50
2022-10-19T08:29:36.779Z,16.40
2022-10-19T08:30:36.721Z,19.10
2022-10-19T08:31:36.739Z,18.30
2022-10-19T08:32:37.053Z,13.50
2022-10-19T08:33:36.838Z,14.80
2022-10-19T08:34:36.674Z,13.00
2022-10-19T08:35:36.655Z,15.50
2022-10-19T08:36:36.690Z,14.60
2022-10-19T08:37:44.789Z,13.80
2022-10-19T08:38:36.653Z,13.70
2022-10-19T08:39:36.615Z,14.30
2022-10-19T08:40:36.610Z,14.70
2022-10-19T08:41:36.613Z,14.50
2022-10-19T08:42:36.864Z,14.70
2022-10-19T08:43:36.548Z,15.50
2022-10-19T08:44:36.579Z,14.90
2022-10-19T08:45:36.574Z,12.10
2022-10-19T08:46:36.531Z,13.20
2022-10-19T08:47:36.815Z,15.20
2022-10-19T08:48:36.502Z,13.90
2022-10-19T08:49:36.476Z,14.60
2022-10-19T08:50:36.454Z,14.40
2022-10-19T08:51:36.443Z,15.00
2022-10-19T08:52:36.463Z,12.50
2022-10-19T08:53:36.420Z,22.80
2022-10-19T08:54:36.481Z,17.50
2022-10-19T08:55:36.415Z,20.20
2022-10-19T08:56:50.484Z,20.30
2022-10-19T08:57:36.731Z,19.40
2022-10-19T08:58:36.345Z,24.20
2022-10-19T08:59:36.469Z,18.10
2022-10-19T09:00:36.440Z,19.70
2022-10-19T09:01:37.740Z,16.70
2022-10-19T09:02:36.669Z,17.60
2022-10-19T09:03:55.302Z,17.20
2022-10-19T09:04:36.270Z,16.80
2022-10-19T09:05:36.284Z,15.10
2022-10-19T09:06:36.240Z,16.20
2022-10-19T09:07:36.223Z,18.00
2022-10-19T09:08:36.234Z,18.30
2022-10-19T09:09:36.287Z,18.30
2022-10-19T09:10:36.205Z,18.90
2022-10-19T09:11:36.176Z,18.40
2022-10-19T09:12:36.460Z,18.00
2022-10-19T09:13:41.671Z,18.80
2022-10-19T09:14:36.168Z,19.00
2022-10-19T09:15:36.171Z,17.20
2022-10-19T09:16:36.107Z,18.80
2022-10-19T09:17:36.108Z,17.50
2022-10-19T09:18:36.079Z,17.70
2022-10-19T09:19:36.163Z,18.40
2022-10-19T09:20:36.055Z,20.80
2022-10-19T09:21:45.992Z,21.70
2022-10-19T09:22:36.395Z,23.30
2022-10-19T09:23:36.009Z,18.10
2022-10-19T09:24:36.030Z,21.80
2022-10-19T09:25:35.998Z,21.70
2022-10-19T09:26:35.981Z,23.60
2022-10-19T09:27:35.999Z,20.80
2022-10-19T09:28:39.679Z,23.40
2022-10-19T09:29:36.054Z,24.00
2022-10-19T09:30:35.955Z,23.90
2022-10-19T09:31:40.351Z,25.90
2022-10-19T09:32:36.425Z,24.30
2022-10-19T09:33:35.880Z,25.90
2022-10-19T09:34:35.915Z,23.60
2022-10-19T09:35:35.858Z,25.60
2022-10-19T09:36:50.204Z,27.60
2022-10-19T09:37:35.838Z,22.50
2022-10-19T09:38:35.803Z,22.60
2022-10-19T09:39:35.798Z,23.80
2022-10-19T09:40:35.806Z,22.90
2022-10-19T09:41:35.783Z,22.20
2022-10-19T09:42:36.036Z,23.70
2022-10-19T09:43:35.798Z,24.70
2022-10-19T09:44:35.736Z,22.00
2022-10-19T09:45:35.728Z,24.20
2022-10-19T09:46:38.676Z,22.30
2022-10-19T09:47:36.092Z,27.00
2022-10-19T09:48:35.682Z,23.70
2022-10-19T09:49:35.694Z,30.10
2022-10-19T09:50:35.651Z,25.30
2022-10-19T09:51:35.641Z,24.00
2022-10-19T09:52:35.620Z,22.10
2022-10-19T09:53:35.627Z,21.70
2022-10-19T09:54:35.684Z,23.60
2022-10-19T09:55:35.624Z,25.90
2022-10-19T09:56:35.583Z,27.80
2022-10-19T09:57:35.802Z,24.40
2022-10-19T09:58:35.555Z,27.60
2022-10-19T09:59:35.570Z,22.30
2022-10-19T10:00:35.511Z,23.60
2022-10-19T10:01:41.691Z,23.70
2022-10-19T10:02:35.882Z,24.00
2022-10-19T10:03:35.484Z,25.10
2022-10-19T10:04:35.495Z,24.20
2022-10-19T10:05:35.468Z,25.80
2022-10-19T10:06:35.438Z,23.30
2022-10-19T10:07:35.734Z,23.30
2022-10-19T10:08:35.473Z,23.30
2022-10-19T10:09:35.459Z,21.30
2022-10-19T10:10:35.421Z,21.20
2022-10-19T10:11:35.397Z,22.80
2022-10-19T10:12:35.701Z,22.20
2022-10-19T10:13:35.372Z,19.80
2022-10-19T10:14:35.329Z,21.70
2022-10-19T10:15:35.313Z,19.20
2022-10-19T10:16:35.306Z,19.00
2022-10-19T10:17:35.288Z,20.30
2022-10-19T10:18:35.310Z,21.40
2022-10-19T10:19:35.289Z,19.50
2022-10-19T10:20:35.333Z,18.90
2022-10-19T10:21:35.237Z,20.70
2022-10-19T10:22:35.528Z,21.30
2022-10-19T10:23:35.244Z,19.30
2022-10-19T10:24:35.202Z,17.00
2022-10-19T10:25:35.179Z,22.20
2022-10-19T10:27:35.530Z,21.80
2022-10-19T10:28:35.172Z,19.60
2022-10-19T10:29:35.130Z,21.20
2022-10-19T10:30:35.119Z,23.30
2022-10-19T10:31:35.101Z,20.30
2022-10-19T10:32:35.465Z,20.90
2022-10-19T10:33:46.493Z,19.70
2022-10-19T10:34:49.506Z,18.90
2022-10-19T10:35:35.060Z,20.40
2022-10-19T10:36:35.079Z,19.20
2022-10-19T10:37:35.424Z,22.30
2022-10-19T10:38:35.013Z,19.90
2022-10-19T10:39:35.024Z,18.40
2022-10-19T10:40:34.988Z,21.50
2022-10-19T10:41:34.975Z,18.60
2022-10-19T10:42:35.284Z,21.10
2022-10-19T10:43:34.947Z,21.20
2022-10-19T10:44:34.939Z,22.50
2022-10-19T10:45:34.922Z,21.00
2022-10-19T10:46:34.937Z,17.00
2022-10-19T10:47:35.322Z,17.00
2022-10-19T10:48:34.881Z,18.60
2022-10-19T10:49:34.894Z,18.50
2022-10-19T10:50:34.852Z,18.80
2022-10-19T10:51:34.857Z,16.80
2022-10-19T10:52:35.105Z,17.60
2022-10-19T10:53:34.857Z,18.10
2022-10-19T10:54:34.803Z,20.10
2022-10-19T10:55:34.789Z,16.20
2022-10-19T10:56:34.781Z,20.20
2022-10-19T10:57:34.757Z,20.00
2022-10-19T10:58:34.770Z,18.60
2022-10-19T10:59:34.739Z,18.10
2022-10-19T11:00:34.743Z,21.00
2022-10-19T11:01:34.738Z,19.20
2022-10-19T11:02:34.738Z,17.50
2022-10-19T11:03:34.683Z,20.50
2022-10-19T11:04:34.695Z,18.90
2022-10-19T11:05:34.651Z,19.30
2022-10-19T11:06:34.640Z,18.30
2022-10-19T11:07:34.892Z,18.80
2022-10-19T11:08:34.655Z,18.40
2022-10-19T11:09:34.594Z,18.30
2022-10-19T11:10:34.602Z,18.50
2022-10-19T11:11:34.562Z,18.40
2022-10-19T11:12:35.240Z,16.60
2022-10-19T11:13:34.548Z,17.90
2022-10-19T11:14:34.563Z,17.70
2022-10-19T11:15:34.514Z,19.60
2022-10-19T11:16:34.504Z,16.80
2022-10-19T11:17:34.779Z,19.90
2022-10-19T11:18:34.480Z,14.10
2022-10-19T11:19:34.502Z,15.20
2022-10-19T11:20:34.465Z,17.30
2022-10-19T11:21:34.437Z,15.40
2022-10-19T11:22:34.779Z,16.60
2022-10-19T11:23:34.410Z,17.70
2022-10-19T11:24:34.417Z,16.50
2022-10-19T11:25:34.442Z,15.40
2022-10-19T11:26:34.378Z,14.70
2022-10-19T11:27:34.735Z,15.30
2022-10-19T11:28:34.370Z,15.00
2022-10-19T11:29:34.320Z,15.20
2022-10-19T11:30:35.538Z,16.20
2022-10-19T11:31:34.313Z,16.30
2022-10-19T11:32:34.650Z,14.00
2022-10-19T11:33:34.361Z,15.60
2022-10-19T11:34:34.286Z,16.10
2022-10-19T11:35:34.245Z,17.00
2022-10-19T11:36:34.235Z,16.10
2022-10-19T11:37:34.526Z,14.00
2022-10-19T11:38:34.211Z,13.70
2022-10-19T11:39:34.218Z,13.50
2022-10-19T11:40:34.192Z,13.30
2022-10-19T11:41:34.193Z,12.90
2022-10-19T11:42:34.199Z,15.10
2022-10-19T11:43:34.149Z,13.60
2022-10-19T11:44:34.134Z,14.30
2022-10-19T11:45:34.117Z,15.60
2022-10-19T11:46:34.111Z,15.30
2022-10-19T11:47:34.538Z,13.80
2022-10-19T11:48:34.087Z,16.20
2022-10-19T11:49:34.189Z,14.70
2022-10-19T11:50:34.058Z,13.60
2022-10-19T11:51:34.121Z,13.00
2022-10-19T11:52:34.333Z,14.50
2022-10-19T11:53:34.032Z,11.20
2022-10-19T11:54:34.029Z,13.00
2022-10-19T11:55:34.026Z,13.50
2022-10-19T11:56:44.646Z,13.40
2022-10-19T11:57:34.311Z,11.40
2022-10-19T11:58:35.205Z,13.10
2022-10-19T11:59:33.957Z,11.20
2022-10-19T12:00:39.341Z,14.50
2022-10-19T12:01:33.911Z,14.80
2022-10-19T12:02:34.302Z,11.80
2022-10-19T12:03:33.877Z,12.60
2022-10-19T12:04:33.863Z,11.40
2022-10-19T12:05:33.891Z,14.80
2022-10-19T12:06:33.840Z,12.70
2022-10-19T12:07:33.854Z,12.30
2022-10-19T12:08:33.884Z,11.10
2022-10-19T12:09:33.800Z,10.70
2022-10-19T12:10:33.798Z,13.80
2022-10-19T12:11:33.777Z,14.70
2022-10-19T12:12:34.120Z,12.90
2022-10-19T12:13:33.787Z,14.30
2022-10-19T12:14:33.735Z,14.10
2022-10-19T12:15:33.734Z,14.70
2022-10-19T12:16:33.710Z,14.00
2022-10-19T12:17:34.252Z,16.00
2022-10-19T12:18:33.694Z,14.40
2022-10-19T12:19:33.682Z,15.40
2022-10-19T12:20:33.663Z,16.70
2022-10-19T12:21:33.639Z,15.20
2022-10-19T12:22:33.652Z,15.10
2022-10-19T12:23:33.622Z,14.00
2022-10-19T12:24:33.619Z,16.50
2022-10-19T12:25:33.594Z,18.50
2022-10-19T12:26:33.603Z,19.90
2022-10-19T12:27:33.851Z,23.10
2022-10-19T12:28:33.584Z,20.30
2022-10-19T12:29:33.549Z,23.30
2022-10-19T12:30:33.539Z,22.40
2022-10-19T12:31:33.522Z,22.90
2022-10-19T12:32:33.542Z,22.80
2022-10-19T12:33:33.520Z,21.70
2022-10-19T12:34:33.507Z,23.60
2022-10-19T12:35:33.464Z,23.50
2022-10-19T12:36:33.452Z,19.40
2022-10-19T12:37:33.637Z,21.40
2022-10-19T12:38:33.447Z,20.90
2022-10-19T12:39:33.431Z,21.40
2022-10-19T12:40:33.393Z,20.30
2022-10-19T12:41:33.382Z,21.70
2022-10-19T12:42:33.372Z,20.70
2022-10-19T12:43:33.354Z,21.80
2022-10-19T12:44:33.384Z,21.60
2022-10-19T12:45:33.326Z,21.50
2022-10-19T12:46:33.327Z,20.20
2022-10-19T12:47:33.729Z,24.70
2022-10-19T12:48:33.292Z,21.00
2022-10-19T12:49:33.284Z,18.80
2022-10-19T12:50:35.061Z,21.60
2022-10-19T12:51:33.271Z,18.20
2022-10-19T12:52:33.652Z,16.90
2022-10-19T12:53:33.242Z,19.40
2022-10-19T12:54:33.218Z,20.40
2022-10-19T12:55:33.208Z,18.30
2022-10-19T12:56:33.192Z,19.80
2022-10-19T12:57:33.163Z,18.70
2022-10-19T12:58:33.191Z,18.20
2022-10-19T12:59:33.172Z,20.70
2022-10-19T13:00:33.225Z,17.80